Time;durP1;ratioP1;P1;durP2;ratioP2;P2;SDS_P1;SDS_P2;PMS_P1;PMS_P2;Temp;Humidity;BMP_temperature;BMP_pressure;BME280_temperature;BME280_humidity;BME280_pressure;Samples;Min_cycle;Max_cycle;Signal;HPM_P1;HPM_P2
2022/05/13 00:00:58;;;;;;;11.68;2.80;;;;;;;;;;5106840;28;20047;-76
2022/05/13 00:03:28;;;;;;;6.53;2.58;;;;;;;;;;5107043;28;20096;-73
2022/05/13 00:05:58;;;;;;;9.18;2.28;;;;;;;;;;5106989;28;20058;-75
2022/05/13 00:08:29;;;;;;;9.68;2.58;;;;;;;;;;5107311;28;20046;-74
2022/05/13 00:11:01;;;;;;;6.10;2.67;;;;;;;;;;5107156;28;20044;-74
2022/05/13 00:13:32;;;;;;;8.20;2.30;;;;;;;;;;5106675;28;20036;-73
2022/05/13 00:16:04;;;;;;;13.38;2.70;;;;;;;;;;5106362;28;20040;-74
2022/05/13 00:18:35;;;;;;;11.23;2.80;;;;;;;;;;5106635;28;20051;-74
2022/05/13 00:21:05;;;;;;;12.60;2.30;;;;;;;;;;5105723;28;20058;-74
2022/05/13 00:23:35;;;;;;;14.50;2.38;;;;;;;;;;5107123;28;20055;-74
2022/05/13 00:26:05;;;;;;;14.27;2.33;;;;;;;;;;5107124;28;20530;-74
2022/05/13 00:28:35;;;;;;;9.38;2.13;;;;;;;;;;5106642;28;20043;-74
2022/05/13 00:31:05;;;;;;;13.93;2.28;;;;;;;;;;5105002;28;20054;-73
2022/05/13 00:33:35;;;;;;;15.30;2.53;;;;;;;;;;5106205;28;20050;-74
2022/05/13 00:36:06;;;;;;;7.43;2.22;;;;;;;;;;5105425;28;20055;-74
2022/05/13 00:38:36;;;;;;;6.95;2.42;;;;;;;;;;5106856;28;20047;-74
2022/05/13 00:41:06;;;;;;;8.00;2.00;;;;;;;;;;5106847;28;20043;-74
2022/05/13 00:43:51;;;;;;;9.55;2.28;;;;;;;;;;5107341;28;20070;-74
2022/05/13 00:46:23;;;;;;;7.28;2.10;;;;;;;;;;5105984;28;20063;-74
2022/05/13 00:48:54;;;;;;;11.20;2.03;;;;;;;;;;5106462;28;20044;-73
2022/05/13 00:51:34;;;;;;;6.03;2.25;;;;;;;;;;5105613;28;20051;-74
2022/05/13 00:54:07;;;;;;;10.00;2.13;;;;;;;;;;5104871;28;20054;-74
2022/05/13 00:56:37;;;;;;;13.18;1.98;;;;;;;;;;5105486;28;20439;-74
2022/05/13 00:59:09;;;;;;;8.85;1.90;;;;;;;;;;5105254;28;20062;-74
2022/05/13 01:01:39;;;;;;;10.05;2.10;;;;;;;;;;5106733;28;20507;-74
2022/05/13 01:04:12;;;;;;;7.93;2.00;;;;;;;;;;5106253;28;20051;-75
2022/05/13 01:06:49;;;;;;;6.78;2.05;;;;;;;;;;5106053;28;20048;-74
2022/05/13 01:09:21;;;;;;;15.77;3.53;;;;;;;;;;5106437;28;20046;-74
2022/05/13 01:11:54;;;;;;;8.38;2.10;;;;;;;;;;5106265;28;20048;-74
2022/05/13 01:14:29;;;;;;;10.18;2.45;;;;;;;;;;5105616;28;20044;-74
2022/05/13 01:20:29;;;;;;;9.82;2.75;;;;;;;;;;5106755;28;20051;-75
2022/05/13 01:23:06;;;;;;;12.38;2.10;;;;;;;;;;5104921;28;20036;-75
2022/05/13 01:25:50;;;;;;;5.78;1.98;;;;;;;;;;5106194;28;20518;-75
2022/05/13 01:28:48;;;;;;;10.00;2.40;;;;;;;;;;5105969;28;20043;-74
2022/05/13 01:31:36;;;;;;;12.20;2.13;;;;;;;;;;5100741;28;20060;-74
2022/05/13 01:34:10;;;;;;;14.70;2.30;;;;;;;;;;5105740;28;20558;-74
2022/05/13 01:36:42;;;;;;;15.82;2.58;;;;;;;;;;5106115;28;20541;-74
2022/05/13 01:39:12;;;;;;;19.95;2.35;;;;;;;;;;5106471;28;20046;-74
2022/05/13 01:41:42;;;;;;;4.85;2.40;;;;;;;;;;5106702;28;20083;-75
2022/05/13 01:44:12;;;;;;;10.88;2.50;;;;;;;;;;5109836;28;20043;-75
2022/05/13 01:46:42;;;;;;;9.52;2.60;;;;;;;;;;5109827;28;20048;-74
2022/05/13 01:49:12;;;;;;;9.05;2.40;;;;;;;;;;5109777;28;20101;-74
2022/05/13 01:51:42;;;;;;;8.20;2.20;;;;;;;;;;5109276;28;20063;-75
2022/05/13 01:54:12;;;;;;;8.73;2.00;;;;;;;;;;5109903;28;20059;-74
2022/05/13 01:56:42;;;;;;;11.43;2.05;;;;;;;;;;5108563;28;20062;-74
2022/05/13 01:59:12;;;;;;;14.23;2.17;;;;;;;;;;5108946;28;20410;-75
2022/05/13 02:01:42;;;;;;;6.03;1.70;;;;;;;;;;5107924;28;20044;-74
2022/05/13 02:04:12;;;;;;;13.73;1.98;;;;;;;;;;5109552;28;20035;-75
2022/05/13 02:06:42;;;;;;;6.63;1.90;;;;;;;;;;5109525;28;20055;-75
2022/05/13 02:09:12;;;;;;;13.52;2.28;;;;;;;;;;5109459;28;20047;-75
2022/05/13 02:11:44;;;;;;;10.82;2.00;;;;;;;;;;5109421;28;20434;-74
2022/05/13 02:14:16;;;;;;;5.22;2.00;;;;;;;;;;5109599;28;20055;-75
2022/05/13 02:16:47;;;;;;;8.65;1.92;;;;;;;;;;5108921;28;20052;-74
2022/05/13 02:19:17;;;;;;;7.05;1.60;;;;;;;;;;5109232;28;20407;-75
2022/05/13 02:21:47;;;;;;;9.30;1.92;;;;;;;;;;5109052;28;20043;-74
2022/05/13 02:24:16;;;;;;;9.48;1.77;;;;;;;;;;5108568;28;20058;-75
2022/05/13 02:26:46;;;;;;;9.15;1.42;;;;;;;;;;5109238;28;20031;-74
2022/05/13 02:29:16;;;;;;;14.63;1.80;;;;;;;;;;5109074;28;20040;-74
2022/05/13 02:31:46;;;;;;;6.40;1.77;;;;;;;;;;5107830;28;20062;-74
2022/05/13 02:34:16;;;;;;;11.43;2.05;;;;;;;;;;5108855;28;20043;-74
2022/05/13 02:36:47;;;;;;;13.65;1.73;;;;;;;;;;5108918;28;20498;-74
2022/05/13 02:39:17;;;;;;;5.77;1.60;;;;;;;;;;5108671;28;20073;-74
2022/05/13 02:41:47;;;;;;;7.55;1.70;;;;;;;;;;5108683;28;20044;-74
2022/05/13 02:44:17;;;;;;;5.68;1.80;;;;;;;;;;5108722;28;20050;-74
2022/05/13 02:46:47;;;;;;;8.80;2.20;;;;;;;;;;5108676;28;20043;-74
2022/05/13 02:49:17;;;;;;;9.32;2.00;;;;;;;;;;5108854;28;20048;-75
2022/05/13 02:51:48;;;;;;;9.20;1.92;;;;;;;;;;5108485;28;20036;-74
2022/05/13 02:54:18;;;;;;;11.20;1.90;;;;;;;;;;5107602;28;20058;-74
2022/05/13 02:56:48;;;;;;;11.18;2.15;;;;;;;;;;5108121;28;20048;-74
2022/05/13 02:59:18;;;;;;;6.20;1.58;;;;;;;;;;5107799;28;20047;-74
2022/05/13 03:01:48;;;;;;;6.90;1.70;;;;;;;;;;5107331;28;20060;-75
2022/05/13 03:04:18;;;;;;;15.13;1.77;;;;;;;;;;5108331;28;20052;-75
2022/05/13 03:06:51;;;;;;;5.43;1.60;;;;;;;;;;5108670;28;20074;-74
2022/05/13 03:09:22;;;;;;;9.75;1.83;;;;;;;;;;5107612;28;20063;-74
2022/05/13 03:11:53;;;;;;;12.02;1.90;;;;;;;;;;5107311;28;20071;-74
2022/05/13 03:14:23;;;;;;;5.88;1.45;;;;;;;;;;5108259;28;20070;-74
2022/05/13 03:16:53;;;;;;;10.40;1.83;;;;;;;;;;5108293;28;20055;-74
2022/05/13 03:19:23;;;;;;;7.13;1.67;;;;;;;;;;5107942;28;20050;-74
2022/05/13 03:21:53;;;;;;;10.35;1.88;;;;;;;;;;5107015;28;20059;-74
2022/05/13 03:24:23;;;;;;;3.92;1.33;;;;;;;;;;5107661;28;20039;-74
2022/05/13 03:26:53;;;;;;;13.15;1.88;;;;;;;;;;5106230;28;20682;-74
2022/05/13 03:29:23;;;;;;;5.15;2.17;;;;;;;;;;5107017;28;20059;-74
2022/05/13 03:31:58;;;;;;;9.13;1.90;;;;;;;;;;5107678;28;20055;-74
2022/05/13 03:34:28;;;;;;;14.20;2.05;;;;;;;;;;5108030;28;20048;-74
2022/05/13 03:36:58;;;;;;;3.78;1.67;;;;;;;;;;5107231;28;20616;-74
2022/05/13 03:39:28;;;;;;;12.00;2.03;;;;;;;;;;5107290;28;20056;-74
2022/05/13 03:41:58;;;;;;;9.73;1.95;;;;;;;;;;5107382;28;20052;-74
2022/05/13 03:44:30;;;;;;;6.47;2.40;;;;;;;;;;5108006;28;20582;-74
2022/05/13 03:47:00;;;;;;;10.77;2.35;;;;;;;;;;5107123;28;20044;-74
2022/05/13 03:49:30;;;;;;;9.52;2.10;;;;;;;;;;5107361;28;20058;-74
2022/05/13 03:52:01;;;;;;;8.55;2.03;;;;;;;;;;5105974;28;20059;-74
2022/05/13 03:54:31;;;;;;;13.27;2.40;;;;;;;;;;5107561;28;20044;-74
2022/05/13 03:57:01;;;;;;;11.88;2.35;;;;;;;;;;5107876;28;20052;-74
2022/05/13 03:59:31;;;;;;;7.45;2.40;;;;;;;;;;5106058;28;20423;-74
2022/05/13 04:02:01;;;;;;;7.88;1.92;;;;;;;;;;5108349;28;20043;-74
2022/05/13 04:08:56;;;;;;;7.88;2.00;;;;;;;;;;5107471;28;20047;-74
2022/05/13 04:10:11;;;;;;;11.85;2.10;;;;;;;;;;5106906;28;20050;-74
2022/05/13 04:18:19;;;;;;;10.23;1.88;;;;;;;;;;5107376;28;20052;-74
2022/05/13 04:20:49;;;;;;;6.32;1.77;;;;;;;;;;5107010;28;20402;-74
2022/05/13 04:23:19;;;;;;;7.43;2.10;;;;;;;;;;5107225;28;20498;-74
2022/05/13 04:25:50;;;;;;;9.85;2.40;;;;;;;;;;5106921;28;20058;-74
2022/05/13 04:28:20;;;;;;;8.55;1.88;;;;;;;;;;5107156;28;20051;-74
2022/05/13 04:30:50;;;;;;;16.27;2.58;;;;;;;;;;5104893;28;20063;-74
2022/05/13 04:33:20;;;;;;;10.52;1.98;;;;;;;;;;5105354;28;20086;-74
2022/05/13 04:35:50;;;;;;;8.88;2.00;;;;;;;;;;5107052;28;20048;-74
2022/05/13 04:38:20;;;;;;;14.25;2.60;;;;;;;;;;5107123;28;20035;-74
2022/05/13 04:40:49;;;;;;;5.25;2.00;;;;;;;;;;5106787;28;20040;-74
2022/05/13 04:43:20;;;;;;;9.20;1.90;;;;;;;;;;5106870;28;20050;-74
2022/05/13 04:45:51;;;;;;;9.25;2.33;;;;;;;;;;5106927;28;20506;-74
2022/05/13 04:48:26;;;;;;;5.50;1.33;;;;;;;;;;5107050;28;20050;-74
2022/05/13 04:50:58;;;;;;;3.75;1.65;;;;;;;;;;5106186;28;20052;-74
2022/05/13 04:53:31;;;;;;;13.07;1.83;;;;;;;;;;5105641;28;20081;-74
2022/05/13 04:56:05;;;;;;;7.20;1.83;;;;;;;;;;5106087;28;20044;-73
2022/05/13 04:58:38;;;;;;;6.93;1.55;;;;;;;;;;5106881;28;20521;-73
2022/05/13 05:01:10;;;;;;;7.90;1.85;;;;;;;;;;5106149;28;20044;-74
2022/05/13 05:03:41;;;;;;;7.00;1.85;;;;;;;;;;5106618;28;20043;-74
2022/05/13 05:06:13;;;;;;;11.80;1.85;;;;;;;;;;5106422;28;20327;-74
2022/05/13 05:08:44;;;;;;;5.32;1.70;;;;;;;;;;5105043;28;20044;-74
2022/05/13 05:11:14;;;;;;;;;;;;;;;;;;5107268;28;20040;-73
2022/05/13 05:13:50;;;;;;;3.65;1.63;;;;;;;;;;5106822;28;20383;-74
2022/05/13 05:16:22;;;;;;;6.10;1.70;;;;;;;;;;5106651;28;20040;-76
2022/05/13 05:18:51;;;;;;;;;;;;;;;;;;5111151;28;20047;-73
2022/05/13 05:21:22;;;;;;;6.72;1.70;;;;;;;;;;5109815;28;19931;-75
2022/05/13 05:23:53;;;;;;;15.43;1.90;;;;;;;;;;5110376;28;20044;-74
2022/05/13 05:26:23;;;;;;;14.57;2.13;;;;;;;;;;5109910;28;20047;-74
2022/05/13 05:28:54;;;;;;;12.05;1.75;;;;;;;;;;5110237;28;20532;-74
2022/05/13 05:31:24;;;;;;;7.78;1.67;;;;;;;;;;5108241;28;20059;-74
2022/05/13 05:33:54;;;;;;;6.55;1.90;;;;;;;;;;5110405;28;20399;-76
2022/05/13 05:36:24;;;;;;;3.08;1.38;;;;;;;;;;5108918;28;20055;-76
2022/05/13 05:38:54;;;;;;;7.70;2.05;;;;;;;;;;5110629;28;20058;-75
2022/05/13 05:41:24;;;;;;;11.68;1.70;;;;;;;;;;5109994;28;20422;-75
2022/05/13 05:43:54;;;;;;;4.15;1.92;;;;;;;;;;5110002;28;20055;-73
2022/05/13 05:46:24;;;;;;;8.18;2.00;;;;;;;;;;5110101;28;20051;-75
2022/05/13 05:48:55;;;;;;;7.70;1.58;;;;;;;;;;5109870;28;20039;-75
2022/05/13 05:51:25;;;;;;;6.13;1.60;;;;;;;;;;5109614;28;20047;-75
2022/05/13 05:59:31;;;;;;;10.57;1.70;;;;;;;;;;5109530;28;20051;-75
2022/05/13 06:02:01;;;;;;;5.88;1.90;;;;;;;;;;5107049;28;20056;-75
2022/05/13 06:04:31;;;;;;;4.65;1.40;;;;;;;;;;5109096;28;20054;-75
2022/05/13 06:07:02;;;;;;;8.70;2.30;;;;;;;;;;5109651;28;20490;-75
2022/05/13 06:09:32;;;;;;;9.88;2.00;;;;;;;;;;5109436;28;20044;-75
2022/05/13 06:12:02;;;;;;;8.18;1.55;;;;;;;;;;5109725;28;20039;-75
2022/05/13 06:14:32;;;;;;;6.82;1.88;;;;;;;;;;5109657;28;20051;-75
2022/05/13 06:17:07;;;;;;;6.80;1.92;;;;;;;;;;5109047;28;20047;-75
2022/05/13 06:19:38;;;;;;;5.90;1.70;;;;;;;;;;5109221;28;20499;-74
2022/05/13 06:22:07;;;;;;;6.05;1.50;;;;;;;;;;5108925;28;20039;-75
2022/05/13 06:24:38;;;;;;;6.45;1.60;;;;;;;;;;5108824;28;20522;-75
2022/05/13 06:27:09;;;;;;;3.00;1.42;;;;;;;;;;5108936;28;20046;-75
2022/05/13 06:29:39;;;;;;;5.72;1.42;;;;;;;;;;5109039;28;20048;-75
2022/05/13 06:32:09;;;;;;;4.90;1.58;;;;;;;;;;5109110;28;20056;-75
2022/05/13 06:34:40;;;;;;;13.57;2.50;;;;;;;;;;5107859;28;20051;-75
2022/05/13 06:37:11;;;;;;;14.52;2.15;;;;;;;;;;5109386;28;20050;-75
2022/05/13 06:39:41;;;;;;;6.80;1.50;;;;;;;;;;5108692;28;20042;-75
2022/05/13 06:42:11;;;;;;;10.55;1.77;;;;;;;;;;5108012;28;20070;-75
2022/05/13 06:44:43;;;;;;;4.32;1.92;;;;;;;;;;5107069;28;20050;-75
2022/05/13 06:47:15;;;;;;;8.73;1.85;;;;;;;;;;5108692;28;20035;-75
2022/05/13 06:49:45;;;;;;;9.80;1.63;;;;;;;;;;5108693;28;20633;-75
2022/05/13 06:52:16;;;;;;;6.95;1.98;;;;;;;;;;5108437;28;20064;-75
2022/05/13 06:55:07;;;;;;;6.35;1.70;;;;;;;;;;5108157;28;20052;-75
2022/05/13 06:57:37;;;;;;;13.32;1.88;;;;;;;;;;5109295;28;20057;-75
2022/05/13 07:00:10;;;;;;;8.80;1.63;;;;;;;;;;5108653;28;20055;-75
2022/05/13 07:02:40;;;;;;;6.00;1.65;;;;;;;;;;5108340;28;20043;-75
2022/05/13 07:05:13;;;;;;;8.43;2.20;;;;;;;;;;5108382;28;20395;-75
2022/05/13 07:07:45;;;;;;;8.70;1.60;;;;;;;;;;5108567;28;20051;-75
2022/05/13 07:10:16;;;;;;;10.30;1.98;;;;;;;;;;5107726;28;20047;-75
2022/05/13 07:12:46;;;;;;;11.48;1.60;;;;;;;;;;5108295;28;20533;-75
2022/05/13 07:15:20;;;;;;;5.53;1.88;;;;;;;;;;5107769;28;20075;-74
2022/05/13 07:17:50;;;;;;;8.95;1.90;;;;;;;;;;5108585;28;20054;-75
2022/05/13 07:20:21;;;;;;;6.72;1.83;;;;;;;;;;5108439;28;20075;-75
2022/05/13 07:22:52;;;;;;;7.07;1.92;;;;;;;;;;5108093;28;20036;-75
2022/05/13 07:25:23;;;;;;;3.53;1.73;;;;;;;;;;5105746;28;20074;-75
2022/05/13 07:27:53;;;;;;;7.70;1.80;;;;;;;;;;5107683;28;20051;-75
2022/05/13 07:30:23;;;;;;;7.30;1.58;;;;;;;;;;5107875;28;20754;-75
2022/05/13 07:32:53;;;;;;;13.95;2.30;;;;;;;;;;5106594;28;20054;-76
2022/05/13 07:35:24;;;;;;;6.13;2.05;;;;;;;;;;5107412;28;20051;-75
2022/05/13 07:37:53;;;;;;;4.90;1.50;;;;;;;;;;5107850;28;20040;-74
2022/05/13 07:43:12;;;;;;;10.88;1.85;;;;;;;;;;5107451;28;20055;-75
2022/05/13 07:45:43;;;;;;;5.63;1.85;;;;;;;;;;5106564;28;20563;-74
2022/05/13 07:48:13;;;;;;;17.65;2.28;;;;;;;;;;5107719;28;20051;-74
2022/05/13 07:50:43;;;;;;;7.68;1.92;;;;;;;;;;5107232;28;20060;-74
2022/05/13 07:53:13;;;;;;;6.18;2.08;;;;;;;;;;5107294;28;20047;-74
2022/05/13 07:55:43;;;;;;;7.82;1.98;;;;;;;;;;5107782;28;20047;-74
2022/05/13 07:58:15;;;;;;;9.48;1.90;;;;;;;;;;5105975;27;20418;-74
2022/05/13 08:00:46;;;;;;;8.07;1.70;;;;;;;;;;5108059;28;20051;-74
2022/05/13 08:03:17;;;;;;;7.47;2.13;;;;;;;;;;5107461;28;20063;-74
2022/05/13 08:05:51;;;;;;;9.82;1.48;;;;;;;;;;5107507;28;20047;-74
2022/05/13 08:08:30;;;;;;;6.18;2.03;;;;;;;;;;5106679;28;20529;-74
2022/05/13 08:11:03;;;;;;;7.25;1.80;;;;;;;;;;5106145;28;20052;-74
2022/05/13 08:13:34;;;;;;;3.67;1.85;;;;;;;;;;5106909;28;20048;-74
2022/05/13 08:16:11;;;;;;;10.32;1.65;;;;;;;;;;5106841;28;20495;-74
2022/05/13 08:18:42;;;;;;;7.25;1.55;;;;;;;;;;5105187;28;20051;-74
2022/05/13 08:21:13;;;;;;;6.95;1.40;;;;;;;;;;5107619;28;20039;-75
2022/05/13 08:23:44;;;;;;;6.07;1.60;;;;;;;;;;5106396;28;20055;-74
2022/05/13 08:26:14;;;;;;;4.55;1.60;;;;;;;;;;5106889;28;20039;-74
2022/05/13 08:28:45;;;;;;;6.93;1.73;;;;;;;;;;5107245;28;20050;-74
2022/05/13 08:31:15;;;;;;;5.32;1.60;;;;;;;;;;5106859;28;20051;-74
2022/05/13 08:33:45;;;;;;;6.20;1.83;;;;;;;;;;5106964;28;20048;-74
2022/05/13 08:36:17;;;;;;;9.52;2.50;;;;;;;;;;5107246;28;20050;-75
2022/05/13 08:38:49;;;;;;;8.38;2.30;;;;;;;;;;5106690;28;20059;-74
2022/05/13 08:41:41;;;;;;;9.15;2.58;;;;;;;;;;5107269;28;20047;-75
2022/05/13 08:44:15;;;;;;;6.15;2.22;;;;;;;;;;5106830;28;20035;-75
2022/05/13 08:47:00;;;;;;;4.55;2.45;;;;;;;;;;5106377;28;20040;-75
2022/05/13 08:49:51;;;;;;;;;;;;;;;;;;5106655;28;20062;-74
2022/05/13 08:55:15;;;;;;;5.28;1.85;;;;;;;;;;5111161;28;20042;-74
2022/05/13 08:57:48;;;;;;;9.50;1.98;;;;;;;;;;5110508;28;20048;-74
2022/05/13 09:00:58;;;;;;;7.22;2.10;;;;;;;;;;5110771;28;20046;-75
2022/05/13 09:03:36;;;;;;;10.27;1.80;;;;;;;;;;5047761;28;20052;-74
2022/05/13 09:06:21;;;;;;;7.95;2.17;;;;;;;;;;5047669;28;20048;-74
2022/05/13 09:08:53;;;;;;;8.40;2.45;;;;;;;;;;5092501;28;20067;-74
2022/05/13 09:11:31;;;;;;;10.93;2.58;;;;;;;;;;5110343;28;20054;-75
2022/05/13 09:14:09;;;;;;;5.97;2.25;;;;;;;;;;5108139;28;20518;-74
2022/05/13 09:16:42;;;;;;;5.25;2.13;;;;;;;;;;5110496;28;20044;-74
2022/05/13 09:19:39;;;;;;;9.88;2.38;;;;;;;;;;5110374;28;20051;-74
2022/05/13 09:22:12;;;;;;;10.25;2.33;;;;;;;;;;5110423;28;20043;-74
2022/05/13 09:24:45;;;;;;;11.52;2.60;;;;;;;;;;5110676;28;20050;-74
2022/05/13 09:27:46;;;;;;;11.48;2.33;;;;;;;;;;5109986;28;20396;-74
2022/05/13 09:30:21;;;;;;;8.75;2.25;;;;;;;;;;5109900;28;20043;-75
2022/05/13 09:32:52;;;;;;;6.43;2.30;;;;;;;;;;5110427;28;20044;-74
2022/05/13 09:35:39;;;;;;;4.68;2.67;;;;;;;;;;5110363;28;20052;-74
2022/05/13 09:38:21;;;;;;;5.80;1.95;;;;;;;;;;5109673;28;20051;-74
2022/05/13 09:41:10;;;;;;;6.10;1.88;;;;;;;;;;5109897;28;20047;-74
2022/05/13 09:43:54;;;;;;;7.30;2.22;;;;;;;;;;5110254;28;20040;-74
2022/05/13 09:46:34;;;;;;;8.40;1.98;;;;;;;;;;5109153;28;20047;-73
2022/05/13 09:49:19;;;;;;;7.72;2.65;;;;;;;;;;5109662;28;20695;-75
2022/05/13 09:51:59;;;;;;;14.15;3.35;;;;;;;;;;5109761;28;20066;-78
2022/05/13 09:54:35;;;;;;;7.40;3.10;;;;;;;;;;5109958;28;20051;-74
2022/05/13 09:57:20;;;;;;;20.50;3.50;;;;;;;;;;5110078;28;20044;-74
2022/05/13 10:00:06;;;;;;;15.23;3.58;;;;;;;;;;5109354;28;20129;-74
2022/05/13 10:02:44;;;;;;;18.52;4.03;;;;;;;;;;5113880;28;20058;-74
2022/05/13 10:05:28;;;;;;;15.63;3.65;;;;;;;;;;5108372;28;20438;-74
2022/05/13 10:08:07;;;;;;;39.78;3.65;;;;;;;;;;5109158;28;20043;-75
2022/05/13 10:16:34;;;;;;;168.63;5.65;;;;;;;;;;5109254;28;20529;-75
2022/05/13 10:19:20;;;;;;;177.68;6.32;;;;;;;;;;5109528;28;20059;-76
2022/05/13 10:22:15;;;;;;;72.50;3.08;;;;;;;;;;5108860;28;20660;-75
2022/05/13 10:24:57;;;;;;;98.75;4.55;;;;;;;;;;5109359;28;20047;-75
2022/05/13 10:28:07;;;;;;;62.70;3.30;;;;;;;;;;5109377;28;20058;-75
2022/05/13 10:31:06;;;;;;;30.08;2.95;;;;;;;;;;5101854;28;20063;-74
2022/05/13 10:33:46;;;;;;;4.40;3.00;;;;;;;;;;5107600;28;20047;-75
2022/05/13 10:36:39;;;;;;;18.65;3.55;;;;;;;;;;5108792;28;20047;-75
2022/05/13 10:39:13;;;;;;;64.20;9.00;;;;;;;;;;5108890;28;20395;-75
2022/05/13 10:41:48;;;;;;;66.95;3.92;;;;;;;;;;5108850;28;20496;-75
2022/05/13 10:44:59;;;;;;;37.17;5.18;;;;;;;;;;5105494;28;20055;-75
2022/05/13 10:47:55;;;;;;;30.63;4.18;;;;;;;;;;5104845;28;20040;-82
2022/05/13 10:50:49;;;;;;;174.93;6.47;;;;;;;;;;5108269;28;20047;-75
2022/05/13 10:53:35;;;;;;;218.00;9.68;;;;;;;;;;5108175;28;20052;-76
2022/05/13 10:56:24;;;;;;;41.53;4.45;;;;;;;;;;5108325;28;20048;-75
2022/05/13 10:59:34;;;;;;;25.27;3.22;;;;;;;;;;5106940;28;20043;-74
2022/05/13 11:02:16;;;;;;;6.40;3.30;;;;;;;;;;5107235;28;20047;-75
2022/05/13 11:05:10;;;;;;;3.67;2.55;;;;;;;;;;5108214;28;20048;-77
2022/05/13 11:07:54;;;;;;;10.25;3.50;;;;;;;;;;5107995;28;20054;-75
2022/05/13 11:10:54;;;;;;;6.55;2.83;;;;;;;;;;5107020;28;20492;-74
2022/05/13 11:13:36;;;;;;;3.75;2.47;;;;;;;;;;5108266;28;20079;-75
2022/05/13 11:16:33;;;;;;;8.52;2.97;;;;;;;;;;5105678;28;20468;-72
2022/05/13 11:19:38;;;;;;;17.40;5.10;;;;;;;;;;5106388;28;20051;-75
2022/05/13 11:22:37;;;;;;;22.23;3.03;;;;;;;;;;5097044;28;20063;-75
2022/05/13 11:28:32;;;;;;;13.60;5.07;;;;;;;;;;5107159;28;20401;-73
2022/05/13 11:31:27;;;;;;;7.78;2.53;;;;;;;;;;5107066;28;20502;-73
2022/05/13 11:34:19;;;;;;;20.35;3.60;;;;;;;;;;5107437;28;20051;-74
2022/05/13 11:37:02;;;;;;;9.77;2.97;;;;;;;;;;5107897;28;20525;-74
2022/05/13 11:40:12;;;;;;;5.13;3.60;;;;;;;;;;5107522;28;20498;-74
2022/05/13 11:45:57;;;;;;;5.97;2.00;;;;;;;;;;5107874;28;20047;-75
2022/05/13 11:48:33;;;;;;;8.88;3.08;;;;;;;;;;5106952;28;20118;-75
2022/05/13 11:51:06;;;;;;;8.98;2.05;;;;;;;;;;5107636;28;20074;-74
2022/05/13 11:53:42;;;;;;;24.35;3.28;;;;;;;;;;5107524;28;20050;-75
2022/05/13 11:56:30;;;;;;;12.73;2.00;;;;;;;;;;5108091;28;20394;-74
2022/05/13 11:59:11;;;;;;;7.40;2.17;;;;;;;;;;5107503;28;20850;-75
2022/05/13 12:01:44;;;;;;;;;;;;;;;;;;5107994;28;20047;-75
2022/05/13 12:04:23;;;;;;;6.22;1.67;;;;;;;;;;5107219;28;19930;-75
2022/05/13 12:07:00;;;;;;;10.90;2.35;;;;;;;;;;5105851;28;20054;-75
2022/05/13 12:09:40;;;;;;;9.88;2.72;;;;;;;;;;5107713;28;20055;-74
2022/05/13 12:12:16;;;;;;;6.43;1.70;;;;;;;;;;5107362;28;20406;-75
2022/05/13 12:15:12;;;;;;;8.15;1.80;;;;;;;;;;5107180;28;20040;-77
2022/05/13 12:17:53;;;;;;;4.55;1.70;;;;;;;;;;5107238;28;20059;-75
2022/05/13 12:20:57;;;;;;;3.90;1.45;;;;;;;;;;5106919;28;20055;-74
2022/05/13 12:23:34;;;;;;;6.00;2.28;;;;;;;;;;5106708;28;20039;-76
2022/05/13 12:26:07;;;;;;;4.00;1.95;;;;;;;;;;5106291;28;20537;-77
2022/05/13 12:28:56;;;;;;;14.77;3.10;;;;;;;;;;5107039;28;20058;-75
2022/05/13 12:31:52;;;;;;;4.75;1.90;;;;;;;;;;5107768;28;20035;-75
2022/05/13 12:37:38;;;;;;;9.75;2.13;;;;;;;;;;5104232;28;20078;-76
2022/05/13 12:40:28;;;;;;;9.57;2.15;;;;;;;;;;5107044;28;20062;-75
2022/05/13 12:43:14;;;;;;;23.10;4.45;;;;;;;;;;5106651;28;20902;-75
2022/05/13 12:46:02;;;;;;;7.50;2.25;;;;;;;;;;5106686;28;20056;-76
2022/05/13 12:48:32;;;;;;;4.18;1.80;;;;;;;;;;5107144;28;20421;-74
2022/05/13 12:51:11;;;;;;;7.60;1.50;;;;;;;;;;5106992;28;20051;-75
2022/05/13 12:53:44;;;;;;;3.25;1.50;;;;;;;;;;5106663;28;20054;-76
2022/05/13 12:56:26;;;;;;;10.70;1.92;;;;;;;;;;5106811;28;20048;-75
2022/05/13 12:59:24;;;;;;;4.70;1.63;;;;;;;;;;5106640;28;20048;-75
2022/05/13 13:01:59;;;;;;;5.03;1.73;;;;;;;;;;5106833;28;20058;-76
2022/05/13 13:04:35;;;;;;;5.68;1.73;;;;;;;;;;5106369;28;20044;-75
2022/05/13 13:07:09;;;;;;;7.53;1.60;;;;;;;;;;5106733;28;20044;-75
2022/05/13 13:09:48;;;;;;;3.60;1.52;;;;;;;;;;5106125;28;20036;-75
2022/05/13 13:12:36;;;;;;;5.75;1.33;;;;;;;;;;5107136;28;20440;-77
2022/05/13 13:15:35;;;;;;;4.25;1.63;;;;;;;;;;5106342;28;20044;-75
2022/05/13 13:18:10;;;;;;;3.00;1.23;;;;;;;;;;5106022;28;20597;-75
2022/05/13 13:20:58;;;;;;;6.45;1.50;;;;;;;;;;5106170;28;20387;-75
2022/05/13 13:23:34;;;;;;;5.38;1.48;;;;;;;;;;5106465;28;20052;-75
2022/05/13 13:26:07;;;;;;;8.18;1.30;;;;;;;;;;5106414;28;20054;-77
2022/05/13 13:28:40;;;;;;;6.85;1.63;;;;;;;;;;5106789;28;20063;-76
2022/05/13 13:31:13;;;;;;;3.38;1.38;;;;;;;;;;5105676;28;20062;-76
2022/05/13 13:33:50;;;;;;;17.75;2.65;;;;;;;;;;5106468;28;20040;-77
2022/05/13 13:36:30;;;;;;;4.57;1.60;;;;;;;;;;5106013;28;20048;-76
2022/05/13 13:39:22;;;;;;;5.40;1.58;;;;;;;;;;5108205;28;20406;-78
2022/05/13 13:42:07;;;;;;;10.63;1.95;;;;;;;;;;5108705;28;20051;-76
2022/05/13 13:44:41;;;;;;;10.95;2.35;;;;;;;;;;5109942;28;20043;-74
2022/05/13 13:47:45;;;;;;;3.78;1.15;;;;;;;;;;5110356;28;20036;-76
2022/05/13 13:50:19;;;;;;;8.52;1.67;;;;;;;;;;5109996;28;20524;-76
2022/05/13 13:52:51;;;;;;;8.70;1.90;;;;;;;;;;5110017;28;20054;-76
2022/05/13 13:55:22;;;;;;;8.02;2.25;;;;;;;;;;5110063;28;20046;-76
2022/05/13 13:57:52;;;;;;;11.40;2.20;;;;;;;;;;5109445;28;20040;-76
2022/05/13 14:00:41;;;;;;;4.63;1.45;;;;;;;;;;5109624;28;20048;-77
2022/05/13 14:03:15;;;;;;;11.70;1.95;;;;;;;;;;5109283;28;20046;-76
2022/05/13 14:06:07;;;;;;;6.38;1.30;;;;;;;;;;5109374;28;20054;-74
2022/05/13 14:08:40;;;;;;;18.90;5.35;;;;;;;;;;5109580;28;20046;-77
2022/05/13 14:11:18;;;;;;;5.68;1.85;;;;;;;;;;5109401;28;20035;-77
2022/05/13 14:14:09;;;;;;;14.73;1.90;;;;;;;;;;5109437;28;20039;-75
2022/05/13 14:17:07;;;;;;;2.95;1.15;;;;;;;;;;5107005;28;20051;-75
2022/05/13 14:19:51;;;;;;;6.00;1.25;;;;;;;;;;5106786;28;20422;-75
2022/05/13 14:22:21;;;;;;;5.25;1.40;;;;;;;;;;5108211;28;20685;-76
2022/05/13 14:25:03;;;;;;;49.22;4.30;;;;;;;;;;5108623;28;20052;-75
2022/05/13 14:27:34;;;;;;;3.42;0.77;;;;;;;;;;5108757;28;20047;-76
2022/05/13 14:30:12;;;;;;;9.52;1.65;;;;;;;;;;5109094;28;20050;-75
2022/05/13 14:32:43;;;;;;;7.40;1.50;;;;;;;;;;5109252;28;20044;-75
2022/05/13 14:35:19;;;;;;;4.53;1.17;;;;;;;;;;5109213;28;20502;-75
2022/05/13 14:37:57;;;;;;;12.70;1.70;;;;;;;;;;5108601;28;20058;-75
2022/05/13 14:40:47;;;;;;;14.13;2.40;;;;;;;;;;5108571;28;20048;-77
2022/05/13 14:43:22;;;;;;;21.58;4.88;;;;;;;;;;5108798;28;20411;-78
2022/05/13 14:46:06;;;;;;;12.02;1.85;;;;;;;;;;5089813;28;20051;-75
2022/05/13 14:48:37;;;;;;;4.82;1.50;;;;;;;;;;5106913;28;20055;-75
2022/05/13 14:51:12;;;;;;;5.50;1.40;;;;;;;;;;5108553;28;20517;-75
2022/05/13 14:53:53;;;;;;;7.82;1.40;;;;;;;;;;5108821;28;20054;-75
2022/05/13 14:56:26;;;;;;;5.18;1.45;;;;;;;;;;5107347;28;20545;-75
2022/05/13 14:59:00;;;;;;;6.80;1.30;;;;;;;;;;5108423;28;20047;-79
2022/05/13 15:01:44;;;;;;;2.92;0.93;;;;;;;;;;5108708;28;20058;-75
2022/05/13 15:04:28;;;;;;;4.43;1.10;;;;;;;;;;5105726;28;20043;-74
2022/05/13 15:07:17;;;;;;;2.80;0.70;;;;;;;;;;5108092;28;20399;-76
2022/05/13 15:09:49;;;;;;;6.15;0.90;;;;;;;;;;5103702;28;20051;-77
2022/05/13 15:12:21;;;;;;;4.65;1.00;;;;;;;;;;5108135;28;20524;-76
2022/05/13 15:14:51;;;;;;;4.57;1.20;;;;;;;;;;5108330;28;20046;-75
2022/05/13 15:17:23;;;;;;;1.67;0.57;;;;;;;;;;5108416;28;20417;-75
2022/05/13 15:19:53;;;;;;;15.30;4.45;;;;;;;;;;5108123;28;20498;-75
2022/05/13 15:22:27;;;;;;;;;;;;;;;;;;5108444;28;20047;-75
2022/05/13 15:24:57;;;;;;;3.58;0.70;;;;;;;;;;5107595;28;19930;-75
2022/05/13 15:27:28;;;;;;;4.15;0.90;;;;;;;;;;5109348;28;20070;-78
2022/05/13 15:29:58;;;;;;;5.50;1.40;;;;;;;;;;5108109;28;20054;-76
2022/05/13 15:32:28;;;;;;;3.33;0.63;;;;;;;;;;5107856;28;20047;-76
2022/05/13 15:35:00;;;;;;;4.65;1.10;;;;;;;;;;5108107;28;20414;-77
2022/05/13 15:37:32;;;;;;;9.68;0.77;;;;;;;;;;5108426;28;20043;-75
2022/05/13 15:40:05;;;;;;;4.10;1.02;;;;;;;;;;5107734;28;20044;-77
2022/05/13 15:42:36;;;;;;;4.22;0.93;;;;;;;;;;5108081;28;20498;-75
2022/05/13 15:45:07;;;;;;;;;;;;;;;;;;5108313;28;20051;-76
2022/05/13 15:47:37;;;;;;;3.85;0.82;;;;;;;;;;5107747;28;20409;-77
2022/05/13 15:53:17;;;;;;;5.65;1.98;;;;;;;;;;5107613;28;20054;-75
2022/05/13 15:55:54;;;;;;;10.98;3.58;;;;;;;;;;5107278;28;20043;-76
2022/05/13 15:58:41;;;;;;;9.43;4.22;;;;;;;;;;5105455;28;20052;-76
2022/05/13 16:01:34;;;;;;;15.02;6.97;;;;;;;;;;5106371;28;20100;-75
2022/05/13 16:04:05;;;;;;;3.67;1.30;;;;;;;;;;5107274;28;20043;-75
2022/05/13 16:06:35;;;;;;;9.20;1.40;;;;;;;;;;5107130;28;20051;-75
2022/05/13 16:09:06;;;;;;;8.43;1.50;;;;;;;;;;5107717;28;20051;-74
2022/05/13 16:11:39;;;;;;;3.00;1.38;;;;;;;;;;5110707;28;20055;-75
2022/05/13 16:14:15;;;;;;;5.43;1.33;;;;;;;;;;5105932;28;20054;-75